< < Back
Terminal Aerodrome Forecast


Current Version              Previous Versions:   1  2  3  4  5  6  7  8  9  

Terminal Aerodrome Forecast

919
FTUS42 KCAE 231300 AAB
TAFAGS
TAF AMD
KAGS 231328Z 2313/2412 33007KT P6SM SKC
     FM232300 05006KT P6SM SKC=

Latest METAR

210
SAUS70 KWBC 231400 RRA
MTRAGS
METAR KAGS 231353Z 36009KT 10SM CLR 21/14 A2989 RMK AO2 SLP122
T02110139


USA.gov is the U.S. government's official web portal to all federal, state and local government web resources and services.